sensor_id;sensor_type;location;lat;lon;timestamp;P1;durP1;ratioP1;P2;durP2;ratioP2
28623;SDS011;15813;46.932;19.658;2022-07-22T00:00:14;5.85;;;2.95;;
28623;SDS011;15813;46.932;19.658;2022-07-22T00:02:40;5.18;;;2.65;;
28623;SDS011;15813;46.932;19.658;2022-07-22T00:05:05;8.68;;;3.08;;
28623;SDS011;15813;46.932;19.658;2022-07-22T00:07:31;7.80;;;3.28;;
28623;SDS011;15813;46.932;19.658;2022-07-22T00:09:57;7.13;;;2.85;;
28623;SDS011;15813;46.932;19.658;2022-07-22T00:12:23;9.07;;;3.30;;
28623;SDS011;15813;46.932;19.658;2022-07-22T00:14:48;6.28;;;3.28;;
28623;SDS011;15813;46.932;19.658;2022-07-22T00:17:14;10.82;;;5.15;;
28623;SDS011;15813;46.932;19.658;2022-07-22T00:19:39;9.95;;;3.20;;
28623;SDS011;15813;46.932;19.658;2022-07-22T00:22:04;7.13;;;2.50;;
28623;SDS011;15813;46.932;19.658;2022-07-22T00:24:30;10.82;;;3.15;;
28623;SDS011;15813;46.932;19.658;2022-07-22T00:26:55;7.10;;;3.15;;
28623;SDS011;15813;46.932;19.658;2022-07-22T00:29:20;8.63;;;3.20;;
28623;SDS011;15813;46.932;19.658;2022-07-22T00:31:46;9.32;;;3.08;;
28623;SDS011;15813;46.932;19.658;2022-07-22T00:34:11;9.25;;;2.97;;
28623;SDS011;15813;46.932;19.658;2022-07-22T00:36:37;8.65;;;3.03;;
28623;SDS011;15813;46.932;19.658;2022-07-22T00:39:02;4.30;;;2.80;;
28623;SDS011;15813;46.932;19.658;2022-07-22T00:41:27;4.03;;;2.50;;
28623;SDS011;15813;46.932;19.658;2022-07-22T00:44:00;5.63;;;2.60;;
28623;SDS011;15813;46.932;19.658;2022-07-22T00:46:26;7.00;;;2.97;;
28623;SDS011;15813;46.932;19.658;2022-07-22T00:48:53;4.07;;;2.28;;
28623;SDS011;15813;46.932;19.658;2022-07-22T00:51:19;5.43;;;2.85;;
28623;SDS011;15813;46.932;19.658;2022-07-22T00:53:45;4.60;;;2.47;;
28623;SDS011;15813;46.932;19.658;2022-07-22T00:56:10;8.25;;;2.05;;
28623;SDS011;15813;46.932;19.658;2022-07-22T00:58:36;3.75;;;2.08;;
28623;SDS011;15813;46.932;19.658;2022-07-22T01:01:01;6.95;;;2.28;;
28623;SDS011;15813;46.932;19.658;2022-07-22T01:03:27;6.07;;;3.05;;
28623;SDS011;15813;46.932;19.658;2022-07-22T01:05:52;3.33;;;2.30;;
28623;SDS011;15813;46.932;19.658;2022-07-22T01:08:17;5.47;;;2.30;;
28623;SDS011;15813;46.932;19.658;2022-07-22T01:10:43;3.40;;;2.40;;
28623;SDS011;15813;46.932;19.658;2022-07-22T01:13:08;3.28;;;2.30;;
28623;SDS011;15813;46.932;19.658;2022-07-22T01:15:34;4.68;;;2.47;;
28623;SDS011;15813;46.932;19.658;2022-07-22T01:17:59;5.07;;;2.45;;
28623;SDS011;15813;46.932;19.658;2022-07-22T01:20:25;5.93;;;2.75;;
28623;SDS011;15813;46.932;19.658;2022-07-22T01:22:51;8.73;;;3.08;;
28623;SDS011;15813;46.932;19.658;2022-07-22T01:25:16;4.70;;;2.60;;
28623;SDS011;15813;46.932;19.658;2022-07-22T01:27:42;6.05;;;2.40;;
28623;SDS011;15813;46.932;19.658;2022-07-22T01:30:07;3.28;;;2.20;;
28623;SDS011;15813;46.932;19.658;2022-07-22T01:32:33;4.18;;;2.50;;
28623;SDS011;15813;46.932;19.658;2022-07-22T01:34:58;4.43;;;2.47;;
28623;SDS011;15813;46.932;19.658;2022-07-22T01:37:23;4.78;;;2.85;;
28623;SDS011;15813;46.932;19.658;2022-07-22T01:39:49;10.32;;;3.92;;
28623;SDS011;15813;46.932;19.658;2022-07-22T01:42:14;8.68;;;2.83;;
28623;SDS011;15813;46.932;19.658;2022-07-22T01:44:40;8.80;;;2.70;;
28623;SDS011;15813;46.932;19.658;2022-07-22T01:47:06;6.57;;;2.65;;
28623;SDS011;15813;46.932;19.658;2022-07-22T01:49:31;9.63;;;3.13;;
28623;SDS011;15813;46.932;19.658;2022-07-22T01:51:58;8.52;;;2.95;;
28623;SDS011;15813;46.932;19.658;2022-07-22T01:54:23;12.02;;;3.65;;
28623;SDS011;15813;46.932;19.658;2022-07-22T01:56:49;7.07;;;3.03;;
28623;SDS011;15813;46.932;19.658;2022-07-22T01:59:14;8.87;;;3.30;;
28623;SDS011;15813;46.932;19.658;2022-07-22T02:01:39;4.68;;;2.58;;
28623;SDS011;15813;46.932;19.658;2022-07-22T02:04:04;5.75;;;2.15;;
28623;SDS011;15813;46.932;19.658;2022-07-22T02:06:30;8.15;;;2.80;;
28623;SDS011;15813;46.932;19.658;2022-07-22T02:08:56;6.65;;;2.60;;
28623;SDS011;15813;46.932;19.658;2022-07-22T02:11:21;5.72;;;2.47;;
28623;SDS011;15813;46.932;19.658;2022-07-22T02:13:46;8.32;;;3.33;;
28623;SDS011;15813;46.932;19.658;2022-07-22T02:16:12;4.93;;;2.38;;
28623;SDS011;15813;46.932;19.658;2022-07-22T02:18:37;5.72;;;2.70;;
28623;SDS011;15813;46.932;19.658;2022-07-22T02:21:03;7.68;;;2.65;;
28623;SDS011;15813;46.932;19.658;2022-07-22T02:23:28;6.95;;;3.10;;
28623;SDS011;15813;46.932;19.658;2022-07-22T02:25:53;7.55;;;3.05;;
28623;SDS011;15813;46.932;19.658;2022-07-22T02:28:19;8.32;;;3.30;;
28623;SDS011;15813;46.932;19.658;2022-07-22T02:30:44;5.55;;;2.42;;
28623;SDS011;15813;46.932;19.658;2022-07-22T02:33:09;5.80;;;2.40;;
28623;SDS011;15813;46.932;19.658;2022-07-22T02:35:35;8.10;;;2.55;;
28623;SDS011;15813;46.932;19.658;2022-07-22T02:38:00;5.07;;;2.03;;
28623;SDS011;15813;46.932;19.658;2022-07-22T02:40:26;7.22;;;2.85;;
28623;SDS011;15813;46.932;19.658;2022-07-22T02:42:51;7.32;;;2.47;;
28623;SDS011;15813;46.932;19.658;2022-07-22T02:45:17;9.20;;;3.10;;
28623;SDS011;15813;46.932;19.658;2022-07-22T02:47:49;7.95;;;2.70;;
28623;SDS011;15813;46.932;19.658;2022-07-22T02:50:14;6.38;;;2.95;;
28623;SDS011;15813;46.932;19.658;2022-07-22T02:52:40;4.43;;;2.35;;
28623;SDS011;15813;46.932;19.658;2022-07-22T02:55:05;4.50;;;2.08;;
28623;SDS011;15813;46.932;19.658;2022-07-22T02:57:31;7.72;;;3.03;;
28623;SDS011;15813;46.932;19.658;2022-07-22T02:59:56;6.32;;;2.58;;
28623;SDS011;15813;46.932;19.658;2022-07-22T03:02:21;8.05;;;2.88;;
28623;SDS011;15813;46.932;19.658;2022-07-22T03:04:47;9.02;;;3.13;;
28623;SDS011;15813;46.932;19.658;2022-07-22T03:07:12;11.15;;;2.92;;
28623;SDS011;15813;46.932;19.658;2022-07-22T03:09:38;5.22;;;2.33;;
28623;SDS011;15813;46.932;19.658;2022-07-22T03:12:03;8.27;;;2.92;;
28623;SDS011;15813;46.932;19.658;2022-07-22T03:14:28;7.78;;;2.60;;
28623;SDS011;15813;46.932;19.658;2022-07-22T03:16:54;8.07;;;2.70;;
28623;SDS011;15813;46.932;19.658;2022-07-22T03:19:19;11.57;;;3.05;;
28623;SDS011;15813;46.932;19.658;2022-07-22T03:21:44;5.55;;;2.38;;
28623;SDS011;15813;46.932;19.658;2022-07-22T03:24:10;7.85;;;2.78;;
28623;SDS011;15813;46.932;19.658;2022-07-22T03:26:35;4.95;;;1.92;;
28623;SDS011;15813;46.932;19.658;2022-07-22T03:29:00;9.13;;;3.10;;
28623;SDS011;15813;46.932;19.658;2022-07-22T03:31:26;7.10;;;2.63;;
28623;SDS011;15813;46.932;19.658;2022-07-22T03:33:52;8.05;;;2.83;;
28623;SDS011;15813;46.932;19.658;2022-07-22T03:36:17;7.25;;;2.60;;
28623;SDS011;15813;46.932;19.658;2022-07-22T03:38:42;9.18;;;2.85;;
28623;SDS011;15813;46.932;19.658;2022-07-22T03:41:07;5.32;;;1.90;;
28623;SDS011;15813;46.932;19.658;2022-07-22T03:43:34;8.30;;;2.40;;
28623;SDS011;15813;46.932;19.658;2022-07-22T03:45:59;5.05;;;2.33;;
28623;SDS011;15813;46.932;19.658;2022-07-22T03:48:25;8.52;;;2.95;;
28623;SDS011;15813;46.932;19.658;2022-07-22T03:50:51;9.48;;;3.28;;
28623;SDS011;15813;46.932;19.658;2022-07-22T03:53:16;7.05;;;2.35;;
28623;SDS011;15813;46.932;19.658;2022-07-22T03:55:42;8.80;;;2.55;;
28623;SDS011;15813;46.932;19.658;2022-07-22T03:58:07;7.82;;;2.72;;
28623;SDS011;15813;46.932;19.658;2022-07-22T04:00:32;5.55;;;2.35;;
28623;SDS011;15813;46.932;19.658;2022-07-22T04:02:58;7.15;;;2.33;;
28623;SDS011;15813;46.932;19.658;2022-07-22T04:05:23;5.07;;;2.80;;
28623;SDS011;15813;46.932;19.658;2022-07-22T04:07:49;5.47;;;2.42;;
28623;SDS011;15813;46.932;19.658;2022-07-22T04:10:14;6.70;;;2.28;;
28623;SDS011;15813;46.932;19.658;2022-07-22T04:12:40;6.07;;;2.80;;
28623;SDS011;15813;46.932;19.658;2022-07-22T04:15:06;7.05;;;2.35;;
28623;SDS011;15813;46.932;19.658;2022-07-22T04:17:32;7.50;;;2.33;;
28623;SDS011;15813;46.932;19.658;2022-07-22T04:19:57;4.50;;;2.15;;
28623;SDS011;15813;46.932;19.658;2022-07-22T04:22:24;5.10;;;2.10;;
28623;SDS011;15813;46.932;19.658;2022-07-22T04:24:49;5.95;;;2.20;;
28623;SDS011;15813;46.932;19.658;2022-07-22T04:27:15;5.85;;;2.13;;
28623;SDS011;15813;46.932;19.658;2022-07-22T04:29:40;4.80;;;1.77;;
28623;SDS011;15813;46.932;19.658;2022-07-22T04:32:05;4.05;;;1.60;;
28623;SDS011;15813;46.932;19.658;2022-07-22T04:34:31;7.63;;;2.08;;
28623;SDS011;15813;46.932;19.658;2022-07-22T04:36:57;2.35;;;1.60;;
28623;SDS011;15813;46.932;19.658;2022-07-22T04:39:23;2.22;;;1.40;;
28623;SDS011;15813;46.932;19.658;2022-07-22T04:41:48;3.92;;;1.65;;
28623;SDS011;15813;46.932;19.658;2022-07-22T04:44:13;2.55;;;1.63;;
28623;SDS011;15813;46.932;19.658;2022-07-22T04:46:39;3.20;;;1.70;;
28623;SDS011;15813;46.932;19.658;2022-07-22T04:49:04;2.72;;;1.40;;
28623;SDS011;15813;46.932;19.658;2022-07-22T04:51:30;3.08;;;1.60;;
28623;SDS011;15813;46.932;19.658;2022-07-22T04:53:55;3.25;;;1.42;;
28623;SDS011;15813;46.932;19.658;2022-07-22T04:56:21;12.15;;;1.77;;
28623;SDS011;15813;46.932;19.658;2022-07-22T04:58:47;3.42;;;1.70;;
28623;SDS011;15813;46.932;19.658;2022-07-22T05:01:12;7.38;;;1.70;;
28623;SDS011;15813;46.932;19.658;2022-07-22T05:03:38;4.40;;;1.70;;
28623;SDS011;15813;46.932;19.658;2022-07-22T05:06:04;1.98;;;1.45;;
28623;SDS011;15813;46.932;19.658;2022-07-22T05:08:29;6.53;;;1.65;;
28623;SDS011;15813;46.932;19.658;2022-07-22T05:10:55;8.70;;;2.03;;
28623;SDS011;15813;46.932;19.658;2022-07-22T05:13:20;3.85;;;1.55;;
28623;SDS011;15813;46.932;19.658;2022-07-22T05:15:45;8.45;;;1.85;;
28623;SDS011;15813;46.932;19.658;2022-07-22T05:18:10;9.27;;;2.25;;
28623;SDS011;15813;46.932;19.658;2022-07-22T05:20:36;4.65;;;1.60;;
28623;SDS011;15813;46.932;19.658;2022-07-22T05:23:02;4.25;;;1.80;;
28623;SDS011;15813;46.932;19.658;2022-07-22T05:25:27;3.40;;;1.92;;
28623;SDS011;15813;46.932;19.658;2022-07-22T05:27:53;3.28;;;1.80;;
28623;SDS011;15813;46.932;19.658;2022-07-22T05:30:19;6.97;;;1.98;;
28623;SDS011;15813;46.932;19.658;2022-07-22T05:32:45;6.13;;;1.95;;
28623;SDS011;15813;46.932;19.658;2022-07-22T05:35:10;10.32;;;2.13;;
28623;SDS011;15813;46.932;19.658;2022-07-22T05:37:36;7.70;;;2.00;;
28623;SDS011;15813;46.932;19.658;2022-07-22T05:40:01;8.00;;;1.75;;
28623;SDS011;15813;46.932;19.658;2022-07-22T05:42:26;7.78;;;1.80;;
28623;SDS011;15813;46.932;19.658;2022-07-22T05:44:52;8.30;;;1.48;;
28623;SDS011;15813;46.932;19.658;2022-07-22T05:47:17;3.03;;;1.50;;
28623;SDS011;15813;46.932;19.658;2022-07-22T05:49:43;9.65;;;2.20;;
28623;SDS011;15813;46.932;19.658;2022-07-22T05:52:08;4.93;;;1.55;;
28623;SDS011;15813;46.932;19.658;2022-07-22T05:54:33;6.40;;;1.83;;
28623;SDS011;15813;46.932;19.658;2022-07-22T05:56:59;7.53;;;2.07;;
28623;SDS011;15813;46.932;19.658;2022-07-22T05:59:24;21.83;;;2.60;;
28623;SDS011;15813;46.932;19.658;2022-07-22T06:01:49;7.07;;;2.42;;
28623;SDS011;15813;46.932;19.658;2022-07-22T06:04:15;9.48;;;1.50;;
28623;SDS011;15813;46.932;19.658;2022-07-22T06:06:40;3.85;;;1.60;;
28623;SDS011;15813;46.932;19.658;2022-07-22T06:09:06;4.00;;;1.63;;
28623;SDS011;15813;46.932;19.658;2022-07-22T06:11:31;2.65;;;1.60;;
28623;SDS011;15813;46.932;19.658;2022-07-22T06:13:57;6.75;;;1.73;;
28623;SDS011;15813;46.932;19.658;2022-07-22T06:16:22;5.38;;;1.95;;
28623;SDS011;15813;46.932;19.658;2022-07-22T06:18:47;12.05;;;1.75;;
28623;SDS011;15813;46.932;19.658;2022-07-22T06:21:13;3.72;;;1.73;;
28623;SDS011;15813;46.932;19.658;2022-07-22T06:23:38;9.88;;;2.25;;
28623;SDS011;15813;46.932;19.658;2022-07-22T06:26:03;13.97;;;2.27;;
28623;SDS011;15813;46.932;19.658;2022-07-22T06:28:29;9.18;;;2.22;;
28623;SDS011;15813;46.932;19.658;2022-07-22T06:30:54;7.88;;;2.30;;
28623;SDS011;15813;46.932;19.658;2022-07-22T06:33:20;16.45;;;2.35;;
28623;SDS011;15813;46.932;19.658;2022-07-22T06:35:45;7.95;;;2.42;;
28623;SDS011;15813;46.932;19.658;2022-07-22T06:38:10;11.50;;;2.17;;
28623;SDS011;15813;46.932;19.658;2022-07-22T06:40:36;7.20;;;1.90;;
28623;SDS011;15813;46.932;19.658;2022-07-22T06:43:02;6.45;;;2.20;;
28623;SDS011;15813;46.932;19.658;2022-07-22T06:45:27;35.20;;;3.42;;
28623;SDS011;15813;46.932;19.658;2022-07-22T06:47:53;11.20;;;1.88;;
28623;SDS011;15813;46.932;19.658;2022-07-22T06:50:18;6.80;;;1.77;;
28623;SDS011;15813;46.932;19.658;2022-07-22T06:52:44;7.22;;;1.80;;
28623;SDS011;15813;46.932;19.658;2022-07-22T06:55:09;7.10;;;1.92;;
28623;SDS011;15813;46.932;19.658;2022-07-22T06:57:35;7.35;;;2.25;;
28623;SDS011;15813;46.932;19.658;2022-07-22T07:00:00;4.07;;;2.00;;
28623;SDS011;15813;46.932;19.658;2022-07-22T07:02:26;15.63;;;2.30;;
28623;SDS011;15813;46.932;19.658;2022-07-22T07:04:51;3.97;;;1.75;;
28623;SDS011;15813;46.932;19.658;2022-07-22T07:07:16;4.60;;;1.80;;
28623;SDS011;15813;46.932;19.658;2022-07-22T07:09:41;3.23;;;1.80;;
28623;SDS011;15813;46.932;19.658;2022-07-22T07:12:07;3.87;;;1.83;;
28623;SDS011;15813;46.932;19.658;2022-07-22T07:14:32;7.43;;;1.90;;
28623;SDS011;15813;46.932;19.658;2022-07-22T07:16:58;9.40;;;2.00;;
28623;SDS011;15813;46.932;19.658;2022-07-22T07:19:23;4.72;;;1.70;;
28623;SDS011;15813;46.932;19.658;2022-07-22T07:21:48;7.03;;;1.80;;
28623;SDS011;15813;46.932;19.658;2022-07-22T07:24:14;4.85;;;1.50;;
28623;SDS011;15813;46.932;19.658;2022-07-22T07:26:39;4.13;;;1.55;;
28623;SDS011;15813;46.932;19.658;2022-07-22T07:29:04;7.00;;;1.80;;
28623;SDS011;15813;46.932;19.658;2022-07-22T07:31:30;3.78;;;1.55;;
28623;SDS011;15813;46.932;19.658;2022-07-22T07:33:55;4.15;;;1.63;;
28623;SDS011;15813;46.932;19.658;2022-07-22T07:36:21;6.43;;;1.83;;
28623;SDS011;15813;46.932;19.658;2022-07-22T07:38:46;6.82;;;1.60;;
28623;SDS011;15813;46.932;19.658;2022-07-22T07:41:11;4.93;;;1.80;;
28623;SDS011;15813;46.932;19.658;2022-07-22T07:43:37;7.60;;;1.70;;
28623;SDS011;15813;46.932;19.658;2022-07-22T07:46:02;5.87;;;1.63;;
28623;SDS011;15813;46.932;19.658;2022-07-22T07:48:28;13.40;;;2.15;;
28623;SDS011;15813;46.932;19.658;2022-07-22T07:50:53;11.00;;;1.88;;
28623;SDS011;15813;46.932;19.658;2022-07-22T07:53:18;9.23;;;1.50;;
28623;SDS011;15813;46.932;19.658;2022-07-22T07:55:44;7.28;;;1.60;;
28623;SDS011;15813;46.932;19.658;2022-07-22T07:58:09;7.50;;;1.80;;
28623;SDS011;15813;46.932;19.658;2022-07-22T08:00:34;17.25;;;2.60;;
28623;SDS011;15813;46.932;19.658;2022-07-22T08:03:01;12.93;;;2.00;;
28623;SDS011;15813;46.932;19.658;2022-07-22T08:05:27;8.38;;;1.77;;
28623;SDS011;15813;46.932;19.658;2022-07-22T08:07:52;3.95;;;1.52;;
28623;SDS011;15813;46.932;19.658;2022-07-22T08:10:18;7.90;;;1.50;;
28623;SDS011;15813;46.932;19.658;2022-07-22T08:12:44;5.38;;;1.58;;
28623;SDS011;15813;46.932;19.658;2022-07-22T08:15:09;6.15;;;1.50;;
28623;SDS011;15813;46.932;19.658;2022-07-22T08:17:35;5.10;;;1.50;;
28623;SDS011;15813;46.932;19.658;2022-07-22T08:20:01;2.80;;;1.20;;
28623;SDS011;15813;46.932;19.658;2022-07-22T08:22:26;2.30;;;1.50;;
28623;SDS011;15813;46.932;19.658;2022-07-22T08:24:52;5.03;;;1.88;;
28623;SDS011;15813;46.932;19.658;2022-07-22T08:27:19;16.73;;;2.23;;
28623;SDS011;15813;46.932;19.658;2022-07-22T09:02:55;7.30;;;1.60;;
28623;SDS011;15813;46.932;19.658;2022-07-22T09:05:20;7.93;;;1.50;;
28623;SDS011;15813;46.932;19.658;2022-07-22T09:07:46;15.67;;;1.90;;
28623;SDS011;15813;46.932;19.658;2022-07-22T09:10:13;8.30;;;1.65;;
28623;SDS011;15813;46.932;19.658;2022-07-22T09:12:49;8.77;;;1.63;;
28623;SDS011;15813;46.932;19.658;2022-07-22T09:15:15;4.30;;;1.52;;
28623;SDS011;15813;46.932;19.658;2022-07-22T09:17:40;8.60;;;1.77;;
28623;SDS011;15813;46.932;19.658;2022-07-22T09:20:16;4.73;;;1.70;;
28623;SDS011;15813;46.932;19.658;2022-07-22T09:22:43;3.53;;;1.30;;
28623;SDS011;15813;46.932;19.658;2022-07-22T09:27:46;6.50;;;1.38;;
28623;SDS011;15813;46.932;19.658;2022-07-22T09:30:12;9.32;;;1.45;;
28623;SDS011;15813;46.932;19.658;2022-07-22T09:32:39;2.42;;;1.30;;
28623;SDS011;15813;46.932;19.658;2022-07-22T09:35:05;5.97;;;1.73;;
28623;SDS011;15813;46.932;19.658;2022-07-22T09:37:30;12.27;;;1.77;;
28623;SDS011;15813;46.932;19.658;2022-07-22T09:40:00;2.47;;;1.10;;
28623;SDS011;15813;46.932;19.658;2022-07-22T09:42:49;3.58;;;1.15;;
28623;SDS011;15813;46.932;19.658;2022-07-22T09:45:15;4.70;;;1.33;;
28623;SDS011;15813;46.932;19.658;2022-07-22T09:47:41;3.38;;;1.10;;
28623;SDS011;15813;46.932;19.658;2022-07-22T09:52:51;4.15;;;1.27;;
28623;SDS011;15813;46.932;19.658;2022-07-22T09:55:17;4.30;;;1.50;;
28623;SDS011;15813;46.932;19.658;2022-07-22T09:57:43;3.53;;;0.90;;
28623;SDS011;15813;46.932;19.658;2022-07-22T10:00:09;8.90;;;1.40;;
28623;SDS011;15813;46.932;19.658;2022-07-22T10:03:09;5.22;;;1.70;;
28623;SDS011;15813;46.932;19.658;2022-07-22T10:05:27;6.18;;;1.60;;
28623;SDS011;15813;46.932;19.658;2022-07-22T10:07:53;5.10;;;1.13;;
28623;SDS011;15813;46.932;19.658;2022-07-22T10:10:19;9.38;;;1.55;;
28623;SDS011;15813;46.932;19.658;2022-07-22T10:12:45;1.98;;;1.30;;
28623;SDS011;15813;46.932;19.658;2022-07-22T10:15:12;4.70;;;1.40;;
28623;SDS011;15813;46.932;19.658;2022-07-22T10:17:38;11.48;;;1.50;;
28623;SDS011;15813;46.932;19.658;2022-07-22T10:20:05;4.22;;;1.42;;
28623;SDS011;15813;46.932;19.658;2022-07-22T10:25:12;5.43;;;1.27;;
28623;SDS011;15813;46.932;19.658;2022-07-22T10:27:58;3.80;;;1.33;;
28623;SDS011;15813;46.932;19.658;2022-07-22T10:35:27;2.63;;;1.55;;
28623;SDS011;15813;46.932;19.658;2022-07-22T10:37:54;5.65;;;1.63;;
28623;SDS011;15813;46.932;19.658;2022-07-22T10:40:21;5.80;;;1.50;;
28623;SDS011;15813;46.932;19.658;2022-07-22T10:45:22;1.83;;;1.38;;
28623;SDS011;15813;46.932;19.658;2022-07-22T10:47:54;2.78;;;1.35;;
28623;SDS011;15813;46.932;19.658;2022-07-22T10:53:00;20.42;;;3.42;;
28623;SDS011;15813;46.932;19.658;2022-07-22T10:55:25;6.65;;;1.75;;
28623;SDS011;15813;46.932;19.658;2022-07-22T10:57:51;5.97;;;1.50;;
28623;SDS011;15813;46.932;19.658;2022-07-22T11:00:16;6.37;;;1.27;;
28623;SDS011;15813;46.932;19.658;2022-07-22T11:02:42;6.18;;;1.45;;
28623;SDS011;15813;46.932;19.658;2022-07-22T11:05:07;4.70;;;1.70;;
28623;SDS011;15813;46.932;19.658;2022-07-22T11:07:33;13.73;;;2.05;;
28623;SDS011;15813;46.932;19.658;2022-07-22T11:10:09;9.07;;;1.55;;
28623;SDS011;15813;46.932;19.658;2022-07-22T11:12:35;3.35;;;1.50;;
28623;SDS011;15813;46.932;19.658;2022-07-22T11:15:00;7.67;;;1.57;;
28623;SDS011;15813;46.932;19.658;2022-07-22T11:17:26;5.88;;;1.83;;
28623;SDS011;15813;46.932;19.658;2022-07-22T11:19:52;5.43;;;1.50;;
28623;SDS011;15813;46.932;19.658;2022-07-22T11:22:17;22.63;;;3.60;;
28623;SDS011;15813;46.932;19.658;2022-07-22T11:24:43;5.13;;;1.40;;
28623;SDS011;15813;46.932;19.658;2022-07-22T11:27:16;8.40;;;1.85;;
28623;SDS011;15813;46.932;19.658;2022-07-22T11:29:42;8.15;;;1.45;;
28623;SDS011;15813;46.932;19.658;2022-07-22T11:32:10;8.38;;;1.70;;
28623;SDS011;15813;46.932;19.658;2022-07-22T11:34:37;3.92;;;1.52;;
28623;SDS011;15813;46.932;19.658;2022-07-22T11:37:02;7.45;;;1.60;;
28623;SDS011;15813;46.932;19.658;2022-07-22T11:39:29;6.32;;;1.40;;
28623;SDS011;15813;46.932;19.658;2022-07-22T11:41:55;10.05;;;1.70;;
28623;SDS011;15813;46.932;19.658;2022-07-22T11:44:22;5.50;;;1.50;;
28623;SDS011;15813;46.932;19.658;2022-07-22T11:46:48;5.35;;;1.45;;
28623;SDS011;15813;46.932;19.658;2022-07-22T11:49:14;8.30;;;1.70;;
28623;SDS011;15813;46.932;19.658;2022-07-22T11:51:40;4.28;;;1.73;;
28623;SDS011;15813;46.932;19.658;2022-07-22T11:54:05;2.85;;;1.40;;
28623;SDS011;15813;46.932;19.658;2022-07-22T11:56:31;6.60;;;2.00;;
28623;SDS011;15813;46.932;19.658;2022-07-22T11:58:57;7.43;;;1.70;;
28623;SDS011;15813;46.932;19.658;2022-07-22T12:01:26;5.68;;;1.80;;
28623;SDS011;15813;46.932;19.658;2022-07-22T12:04:14;9.90;;;1.88;;
28623;SDS011;15813;46.932;19.658;2022-07-22T12:06:38;10.05;;;1.55;;
28623;SDS011;15813;46.932;19.658;2022-07-22T12:11:36;1.55;;;1.23;;
28623;SDS011;15813;46.932;19.658;2022-07-22T12:14:06;4.95;;;1.50;;
28623;SDS011;15813;46.932;19.658;2022-07-22T12:16:32;5.45;;;1.55;;
28623;SDS011;15813;46.932;19.658;2022-07-22T12:19:02;5.15;;;1.40;;
28623;SDS011;15813;46.932;19.658;2022-07-22T12:21:31;4.38;;;2.00;;
28623;SDS011;15813;46.932;19.658;2022-07-22T12:24:01;6.63;;;1.80;;
28623;SDS011;15813;46.932;19.658;2022-07-22T12:26:36;5.80;;;1.63;;
28623;SDS011;15813;46.932;19.658;2022-07-22T12:31:47;10.30;;;1.80;;
28623;SDS011;15813;46.932;19.658;2022-07-22T12:34:12;7.10;;;1.90;;
28623;SDS011;15813;46.932;19.658;2022-07-22T12:36:42;7.57;;;1.70;;
28623;SDS011;15813;46.932;19.658;2022-07-22T12:39:12;6.30;;;1.55;;
28623;SDS011;15813;46.932;19.658;2022-07-22T12:41:43;5.88;;;1.40;;
28623;SDS011;15813;46.932;19.658;2022-07-22T12:44:14;4.43;;;1.50;;
28623;SDS011;15813;46.932;19.658;2022-07-22T12:46:47;5.40;;;1.90;;
28623;SDS011;15813;46.932;19.658;2022-07-22T12:49:12;10.30;;;2.30;;
28623;SDS011;15813;46.932;19.658;2022-07-22T12:51:37;5.10;;;1.97;;
28623;SDS011;15813;46.932;19.658;2022-07-22T12:54:03;2.63;;;1.67;;
28623;SDS011;15813;46.932;19.658;2022-07-22T12:56:28;4.90;;;1.70;;
28623;SDS011;15813;46.932;19.658;2022-07-22T12:58:53;6.77;;;2.00;;
28623;SDS011;15813;46.932;19.658;2022-07-22T13:01:19;11.20;;;1.87;;
28623;SDS011;15813;46.932;19.658;2022-07-22T13:03:44;4.80;;;2.00;;
28623;SDS011;15813;46.932;19.658;2022-07-22T13:06:09;6.33;;;2.10;;
28623;SDS011;15813;46.932;19.658;2022-07-22T13:08:36;6.07;;;1.70;;
28623;SDS011;15813;46.932;19.658;2022-07-22T13:11:01;4.68;;;1.92;;
28623;SDS011;15813;46.932;19.658;2022-07-22T13:13:26;8.23;;;1.83;;
28623;SDS011;15813;46.932;19.658;2022-07-22T13:15:52;5.07;;;1.90;;
28623;SDS011;15813;46.932;19.658;2022-07-22T13:18:17;6.37;;;1.90;;
28623;SDS011;15813;46.932;19.658;2022-07-22T13:20:43;7.93;;;2.38;;
28623;SDS011;15813;46.932;19.658;2022-07-22T13:23:08;3.83;;;2.27;;
28623;SDS011;15813;46.932;19.658;2022-07-22T13:25:34;7.13;;;2.33;;
28623;SDS011;15813;46.932;19.658;2022-07-22T13:28:00;4.10;;;1.70;;
28623;SDS011;15813;46.932;19.658;2022-07-22T13:30:25;5.88;;;1.70;;
28623;SDS011;15813;46.932;19.658;2022-07-22T13:32:51;7.40;;;1.77;;
28623;SDS011;15813;46.932;19.658;2022-07-22T13:35:16;4.20;;;2.20;;
28623;SDS011;15813;46.932;19.658;2022-07-22T13:37:42;8.98;;;1.88;;
28623;SDS011;15813;46.932;19.658;2022-07-22T13:40:08;13.13;;;2.35;;
28623;SDS011;15813;46.932;19.658;2022-07-22T13:42:33;6.88;;;1.80;;
28623;SDS011;15813;46.932;19.658;2022-07-22T13:44:59;3.63;;;1.80;;
28623;SDS011;15813;46.932;19.658;2022-07-22T13:47:24;4.70;;;2.10;;
28623;SDS011;15813;46.932;19.658;2022-07-22T13:49:51;6.05;;;1.88;;
28623;SDS011;15813;46.932;19.658;2022-07-22T13:52:17;5.72;;;2.20;;
28623;SDS011;15813;46.932;19.658;2022-07-22T13:54:43;5.95;;;2.10;;
28623;SDS011;15813;46.932;19.658;2022-07-22T13:57:09;4.88;;;2.08;;
28623;SDS011;15813;46.932;19.658;2022-07-22T13:59:34;5.80;;;2.20;;
28623;SDS011;15813;46.932;19.658;2022-07-22T14:02:00;6.63;;;2.05;;
28623;SDS011;15813;46.932;19.658;2022-07-22T14:04:26;4.07;;;2.08;;
28623;SDS011;15813;46.932;19.658;2022-07-22T14:06:51;8.77;;;2.38;;
28623;SDS011;15813;46.932;19.658;2022-07-22T14:09:17;3.47;;;2.20;;
28623;SDS011;15813;46.932;19.658;2022-07-22T14:11:42;6.85;;;1.70;;
28623;SDS011;15813;46.932;19.658;2022-07-22T14:14:08;8.23;;;2.17;;
28623;SDS011;15813;46.932;19.658;2022-07-22T14:16:34;9.38;;;2.50;;
28623;SDS011;15813;46.932;19.658;2022-07-22T14:19:00;6.38;;;2.22;;
28623;SDS011;15813;46.932;19.658;2022-07-22T14:21:25;6.70;;;2.40;;
28623;SDS011;15813;46.932;19.658;2022-07-22T14:23:50;6.20;;;2.03;;
28623;SDS011;15813;46.932;19.658;2022-07-22T14:26:16;5.43;;;2.00;;
28623;SDS011;15813;46.932;19.658;2022-07-22T14:28:41;4.57;;;2.17;;
28623;SDS011;15813;46.932;19.658;2022-07-22T14:31:06;9.23;;;2.20;;
28623;SDS011;15813;46.932;19.658;2022-07-22T14:33:31;15.77;;;2.87;;
28623;SDS011;15813;46.932;19.658;2022-07-22T14:35:57;9.27;;;2.00;;
28623;SDS011;15813;46.932;19.658;2022-07-22T14:38:22;7.13;;;2.20;;
28623;SDS011;15813;46.932;19.658;2022-07-22T14:40:47;8.93;;;2.37;;
28623;SDS011;15813;46.932;19.658;2022-07-22T14:43:13;9.03;;;2.30;;
28623;SDS011;15813;46.932;19.658;2022-07-22T14:45:38;6.65;;;2.38;;
28623;SDS011;15813;46.932;19.658;2022-07-22T14:48:03;7.63;;;2.17;;
28623;SDS011;15813;46.932;19.658;2022-07-22T14:50:29;8.18;;;2.58;;
28623;SDS011;15813;46.932;19.658;2022-07-22T14:52:54;8.27;;;2.50;;
28623;SDS011;15813;46.932;19.658;2022-07-22T14:55:19;9.20;;;2.33;;
28623;SDS011;15813;46.932;19.658;2022-07-22T14:57:45;5.73;;;1.97;;
28623;SDS011;15813;46.932;19.658;2022-07-22T15:00:10;7.63;;;2.67;;
28623;SDS011;15813;46.932;19.658;2022-07-22T15:02:35;14.98;;;2.88;;
28623;SDS011;15813;46.932;19.658;2022-07-22T15:05:01;7.63;;;2.63;;
28623;SDS011;15813;46.932;19.658;2022-07-22T15:07:26;4.43;;;2.30;;
28623;SDS011;15813;46.932;19.658;2022-07-22T15:09:51;5.85;;;2.45;;
28623;SDS011;15813;46.932;19.658;2022-07-22T15:12:17;4.43;;;2.57;;
28623;SDS011;15813;46.932;19.658;2022-07-22T15:14:42;5.53;;;2.23;;
28623;SDS011;15813;46.932;19.658;2022-07-22T15:17:07;5.93;;;2.50;;
28623;SDS011;15813;46.932;19.658;2022-07-22T15:19:33;5.10;;;2.50;;
28623;SDS011;15813;46.932;19.658;2022-07-22T15:21:58;7.20;;;2.10;;